Time;durP1;ratioP1;P1;durP2;ratioP2;P2;SDS_P1;SDS_P2;PMS_P1;PMS_P2;Temp;Humidity;BMP_temperature;BMP_pressure;BME280_temperature;BME280_humidity;BME280_pressure;Samples;Min_cycle;Max_cycle;Signal;HPM_P1;HPM_P2
2024/04/16 00:01:45;;;;;;;3.65;0.50;;;;;;;15.20;38.45;94247.97;5448746;26;19999;-48
2024/04/16 00:04:11;;;;;;;2.50;0.60;;;;;;;15.00;39.02;94237.06;5441022;26;20049;-52
2024/04/16 00:06:36;;;;;;;2.40;0.55;;;;;;;15.04;38.98;94236.38;5444053;26;20007;-51
2024/04/16 00:09:02;;;;;;;4.35;0.60;;;;;;;14.76;39.25;94229.22;5410968;26;20454;-49
2024/04/16 00:11:27;;;;;;;3.60;0.50;;;;;;;14.85;39.08;94227.06;5444881;26;20071;-52
2024/04/16 00:13:52;;;;;;;1.67;0.50;;;;;;;14.90;39.23;94215.91;5444368;26;20096;-50
2024/04/16 00:16:18;;;;;;;1.73;0.55;;;;;;;15.02;39.10;94214.06;5448444;26;20035;-49
2024/04/16 00:18:44;;;;;;;2.00;0.60;;;;;;;14.76;39.92;94212.72;5443637;26;20007;-47
2024/04/16 00:21:10;;;;;;;2.03;0.60;;;;;;;14.91;38.69;94222.72;5438936;26;20048;-50
2024/04/16 00:23:35;;;;;;;2.03;0.50;;;;;;;14.79;39.29;94210.44;5410742;26;20011;-46
2024/04/16 00:26:01;;;;;;;4.13;0.60;;;;;;;14.79;39.00;94214.88;5433374;26;20013;-49
2024/04/16 00:28:26;;;;;;;1.77;0.50;;;;;;;14.76;39.35;94215.34;5443436;26;20073;-48
2024/04/16 00:30:51;;;;;;;2.28;0.55;;;;;;;14.63;39.60;94222.38;5438458;26;20013;-52
2024/04/16 00:33:17;;;;;;;3.40;0.75;;;;;;;14.45;39.91;94204.16;5416371;26;20003;-52
2024/04/16 00:35:43;;;;;;;1.80;0.60;;;;;;;14.66;39.55;94206.22;5439740;26;20023;-50
2024/04/16 00:38:11;;;;;;;2.47;0.50;;;;;;;14.61;38.84;94211.34;5442039;26;19995;-47
2024/04/16 00:40:37;;;;;;;1.02;0.40;;;;;;;14.58;39.42;94209.19;5443656;26;20000;-48
2024/04/16 00:43:18;;;;;;;2.45;0.47;;;;;;;14.58;39.30;94198.72;5437817;26;19999;-48
2024/04/16 00:45:53;;;;;;;2.10;0.55;;;;;;;14.56;38.91;94205.94;5439586;26;20002;-47
2024/04/16 00:48:21;;;;;;;2.65;0.50;;;;;;;14.34;39.40;94203.09;5442791;26;20039;-48
2024/04/16 00:50:47;;;;;;;1.25;0.60;;;;;;;14.55;39.11;94193.13;5440082;26;20441;-47
2024/04/16 00:53:13;;;;;;;2.20;0.50;;;;;;;14.41;39.43;94189.91;5439517;26;20041;-51
2024/04/16 00:55:39;;;;;;;1.63;0.60;;;;;;;14.56;39.58;94195.47;5447962;26;20000;-49
2024/04/16 00:58:05;;;;;;;1.65;0.45;;;;;;;14.45;40.69;94201.53;5437977;26;20013;-51
2024/04/16 01:00:30;;;;;;;2.00;0.57;;;;;;;14.47;40.73;94184.56;5438729;26;19999;-49
2024/04/16 01:02:56;;;;;;;0.88;0.30;;;;;;;14.43;41.10;94180.00;5447905;26;20040;-48
2024/04/16 01:05:21;;;;;;;1.50;0.40;;;;;;;14.35;40.96;94178.53;5445783;26;20015;-50
2024/04/16 01:07:47;;;;;;;1.25;0.50;;;;;;;14.31;41.58;94185.22;5445225;26;20032;-46
2024/04/16 01:10:12;;;;;;;2.25;0.50;;;;;;;14.19;41.93;94190.44;5445545;26;19999;-47
2024/04/16 01:12:41;;;;;;;1.75;0.50;;;;;;;14.01;42.70;94185.28;5445963;26;20080;-47
2024/04/16 01:15:07;;;;;;;2.10;0.65;;;;;;;14.11;42.59;94182.94;5447392;26;20044;-49
2024/04/16 01:17:33;;;;;;;1.30;0.50;;;;;;;14.03;42.42;94181.44;5445651;26;20002;-50
2024/04/16 01:19:58;;;;;;;1.35;0.60;;;;;;;13.94;42.76;94193.25;5446984;26;20006;-47
2024/04/16 01:22:23;;;;;;;1.63;0.50;;;;;;;13.66;42.58;94186.78;5427839;26;20018;-46
2024/04/16 01:24:49;;;;;;;1.80;0.50;;;;;;;13.60;43.20;94181.66;5448450;26;20344;-46
2024/04/16 01:27:15;;;;;;;1.63;0.47;;;;;;;13.52;43.31;94190.59;5438215;26;20003;-47
2024/04/16 01:29:40;;;;;;;0.63;0.40;;;;;;;13.57;44.02;94182.88;5443501;26;20003;-47
2024/04/16 01:32:06;;;;;;;1.40;0.50;;;;;;;13.42;44.14;94200.75;5444721;26;19999;-46
2024/04/16 01:34:31;;;;;;;1.17;0.40;;;;;;;13.58;43.90;94210.63;5389572;26;20048;-45
2024/04/16 01:36:57;;;;;;;0.68;0.40;;;;;;;13.45;44.87;94210.78;5450886;26;20015;-47
2024/04/16 01:39:22;;;;;;;1.73;0.60;;;;;;;13.44;45.26;94203.94;5418205;26;20003;-48
2024/04/16 01:41:47;;;;;;;0.65;0.50;;;;;;;13.42;45.41;94206.81;5443151;26;20023;-46
2024/04/16 01:44:13;;;;;;;2.42;0.47;;;;;;;13.48;44.89;94216.38;5405306;26;20003;-46
2024/04/16 01:46:38;;;;;;;2.80;0.30;;;;;;;13.35;45.95;94220.97;5444181;26;20010;-45
2024/04/16 01:49:03;;;;;;;1.95;0.47;;;;;;;13.27;45.93;94214.97;5451024;26;19999;-45
2024/04/16 01:51:29;;;;;;;1.45;0.40;;;;;;;13.06;46.66;94211.00;5447033;26;20040;-46
2024/04/16 01:53:54;;;;;;;0.30;0.30;;;;;;;13.22;46.17;94222.66;5448816;26;20044;-46
2024/04/16 01:56:19;;;;;;;1.13;0.40;;;;;;;13.00;47.26;94226.72;5448983;26;20010;-46
2024/04/16 01:58:45;;;;;;;0.75;0.40;;;;;;;13.01;46.56;94236.94;5444868;26;20335;-47
2024/04/16 02:01:10;;;;;;;0.63;0.40;;;;;;;12.99;46.82;94238.97;5417826;26;19999;-45
2024/04/16 02:03:36;;;;;;;0.80;0.43;;;;;;;12.71;47.50;94242.03;5412655;26;20035;-45
2024/04/16 02:06:05;;;;;;;0.50;0.50;;;;;;;12.45;48.17;94254.31;5447923;26;20003;-48
2024/04/16 02:08:31;;;;;;;1.10;0.60;;;;;;;12.67;47.91;94266.97;5426741;26;20030;-45
2024/04/16 02:10:57;;;;;;;1.17;0.45;;;;;;;12.36;48.42;94273.03;5450448;26;20002;-46
2024/04/16 02:13:24;;;;;;;0.55;0.50;;;;;;;11.96;49.67;94281.09;5458947;26;19995;-49
2024/04/16 02:15:50;;;;;;;0.40;0.40;;;;;;;11.96;48.92;94284.50;5446530;26;20467;-47
2024/04/16 02:18:15;;;;;;;0.77;0.30;;;;;;;11.85;49.50;94275.50;5447926;26;20002;-46
2024/04/16 02:20:41;;;;;;;0.55;0.30;;;;;;;11.67;49.34;94289.22;5438026;26;19999;-45
2024/04/16 02:23:06;;;;;;;0.32;0.20;;;;;;;11.42;50.67;94283.09;5433655;26;20432;-47
2024/04/16 02:25:32;;;;;;;0.50;0.30;;;;;;;11.35;50.29;94289.13;5446096;26;20052;-48
2024/04/16 02:27:57;;;;;;;0.30;0.30;;;;;;;11.31;51.49;94290.53;5411951;26;20081;-45
2024/04/16 02:30:22;;;;;;;0.28;0.20;;;;;;;11.21;52.57;94297.16;5461615;26;19999;-48
2024/04/16 02:32:48;;;;;;;0.75;0.25;;;;;;;11.05;52.19;94299.19;5447522;26;20014;-46
2024/04/16 02:35:13;;;;;;;0.95;0.20;;;;;;;10.68;53.06;94308.41;5441556;26;19995;-45
2024/04/16 02:37:39;;;;;;;0.85;0.20;;;;;;;10.75;52.38;94306.63;5433873;26;20428;-46
2024/04/16 02:40:04;;;;;;;0.43;0.30;;;;;;;10.54;53.06;94308.41;5442420;26;20070;-45
2024/04/16 02:42:30;;;;;;;0.85;0.30;;;;;;;10.40;53.88;94306.03;5437735;26;19996;-47
2024/04/16 02:44:55;;;;;;;2.25;0.40;;;;;;;10.06;53.18;94294.75;5445839;26;19995;-45
2024/04/16 02:47:20;;;;;;;0.70;0.30;;;;;;;9.87;54.24;94314.47;5444815;26;20309;-46
2024/04/16 02:49:46;;;;;;;0.30;0.20;;;;;;;9.70;54.26;94317.41;5448069;26;20003;-46
2024/04/16 02:52:11;;;;;;;1.23;0.30;;;;;;;9.55;55.26;94332.31;5448058;26;20006;-46
2024/04/16 02:54:37;;;;;;;0.45;0.40;;;;;;;9.43;56.39;94352.03;5417785;26;20003;-48
2024/04/16 02:57:02;;;;;;;0.95;0.52;;;;;;;9.39;56.07;94349.81;5450320;26;20432;-46
2024/04/16 02:59:28;;;;;;;0.40;0.30;;;;;;;9.31;56.64;94354.34;5449776;26;20006;-48
2024/04/16 03:01:53;;;;;;;0.40;0.30;;;;;;;9.06;56.78;94352.19;5440772;26;20072;-46
2024/04/16 03:04:18;;;;;;;0.68;0.40;;;;;;;9.15;55.57;94360.63;5470763;26;20014;-46
2024/04/16 03:06:44;;;;;;;0.43;0.40;;;;;;;8.98;55.76;94368.69;5446567;26;20002;-46
2024/04/16 03:09:09;;;;;;;0.50;0.40;;;;;;;8.89;56.21;94374.22;5443904;26;20431;-46
2024/04/16 03:11:34;;;;;;;0.40;0.32;;;;;;;8.84;55.77;94392.16;5447660;26;20003;-47
2024/04/16 03:14:01;;;;;;;0.55;0.50;;;;;;;8.76;56.40;94399.06;5451145;26;19999;-46
2024/04/16 03:16:26;;;;;;;0.98;0.40;;;;;;;8.61;56.50;94388.75;5411617;26;20007;-45
2024/04/16 03:18:51;;;;;;;0.68;0.50;;;;;;;8.40;57.52;94386.13;5444607;26;20123;-46
2024/04/16 03:21:17;;;;;;;0.98;0.50;;;;;;;8.46;57.27;94382.03;5417473;26;20018;-45
2024/04/16 03:23:42;;;;;;;1.15;0.45;;;;;;;8.25;58.02;94391.34;5447261;26;19995;-46
2024/04/16 03:26:08;;;;;;;0.60;0.30;;;;;;;8.39;57.37;94394.88;5425170;26;19995;-45
2024/04/16 03:28:34;;;;;;;0.40;0.30;;;;;;;8.46;57.77;94392.41;5439207;26;19998;-46
2024/04/16 03:30:59;;;;;;;2.83;0.40;;;;;;;8.29;57.52;94404.75;5449350;26;19995;-46
2024/04/16 03:33:24;;;;;;;1.15;0.55;;;;;;;8.13;58.20;94416.94;5430151;26;20000;-45
2024/04/16 03:35:56;;;;;;;1.98;0.60;;;;;;;7.92;59.56;94409.91;5448324;26;19999;-48
2024/04/16 03:38:21;;;;;;;0.60;0.43;;;;;;;7.88;59.28;94423.38;5441971;26;20465;-47
2024/04/16 03:41:02;;;;;;;1.73;0.50;;;;;;;7.91;58.59;94423.03;5414049;26;19999;-49
2024/04/16 03:43:29;;;;;;;1.08;0.55;;;;;;;8.28;57.42;94419.50;5426126;26;20453;-49
2024/04/16 03:45:55;;;;;;;1.23;0.60;;;;;;;7.92;59.03;94425.47;5411685;26;20010;-50
2024/04/16 03:48:22;;;;;;;2.40;0.60;;;;;;;7.68;59.09;94411.00;5436848;26;20015;-48
2024/04/16 03:50:48;;;;;;;0.60;0.50;;;;;;;7.97;58.98;94415.34;5432145;26;19999;-48
2024/04/16 03:53:13;;;;;;;0.60;0.47;;;;;;;8.05;58.32;94439.53;5443980;26;19999;-47
2024/04/16 03:55:39;;;;;;;1.55;0.63;;;;;;;7.71;59.79;94427.94;5443565;26;20017;-48
2024/04/16 03:58:04;;;;;;;1.83;0.60;;;;;;;7.55;59.58;94436.69;5448680;26;20406;-49
2024/04/16 04:03:16;;;;;;;0.95;0.50;;;;;;;7.40;60.58;94452.22;5440931;26;20014;-51
2024/04/16 04:05:45;;;;;;;1.73;0.40;;;;;;;7.45;58.82;94452.50;5428494;26;20079;-48
2024/04/16 04:08:10;;;;;;;0.90;0.50;;;;;;;7.49;60.12;94452.94;5439215;26;20455;-51
2024/04/16 04:10:36;;;;;;;0.70;0.40;;;;;;;7.48;59.80;94456.50;5448672;26;20013;-51
2024/04/16 04:13:02;;;;;;;1.35;0.45;;;;;;;7.37;60.29;94457.75;5421199;26;19999;-48
2024/04/16 04:15:27;;;;;;;0.60;0.60;;;;;;;7.51;59.71;94454.38;5436434;26;20018;-46
2024/04/16 04:17:52;;;;;;;0.88;0.40;;;;;;;7.27;60.05;94462.34;5448750;26;20003;-46
2024/04/16 04:20:18;;;;;;;0.50;0.40;;;;;;;7.22;59.97;94463.69;5446803;26;20010;-48
2024/04/16 04:22:43;;;;;;;0.32;0.32;;;;;;;7.37;59.64;94448.19;5440896;26;20015;-47
2024/04/16 04:25:08;;;;;;;0.52;0.50;;;;;;;7.18;60.28;94462.44;5448379;26;20002;-48
2024/04/16 04:27:34;;;;;;;2.47;0.40;;;;;;;7.22;60.90;94468.06;5410418;26;20324;-46
2024/04/16 04:29:59;;;;;;;0.45;0.40;;;;;;;7.15;61.52;94465.38;5435774;26;20435;-46
2024/04/16 04:32:25;;;;;;;0.80;0.40;;;;;;;7.37;60.57;94468.09;5446237;26;19999;-48
2024/04/16 04:34:51;;;;;;;1.67;0.43;;;;;;;7.29;60.50;94476.75;5440533;26;20014;-49
2024/04/16 04:37:17;;;;;;;0.68;0.30;;;;;;;7.29;60.15;94466.41;5443770;26;19998;-47
2024/04/16 04:39:43;;;;;;;0.30;0.30;;;;;;;7.36;59.33;94458.72;5433821;26;19999;-51
2024/04/16 04:42:09;;;;;;;0.60;0.50;;;;;;;7.52;58.86;94452.56;5445374;26;19994;-49
2024/04/16 04:44:34;;;;;;;1.27;0.40;;;;;;;7.23;59.82;94454.13;5442142;26;20043;-47
2024/04/16 04:46:59;;;;;;;0.52;0.50;;;;;;;6.74;61.50;94467.44;5443622;26;20370;-48
2024/04/16 04:49:25;;;;;;;0.95;0.50;;;;;;;6.86;60.04;94458.34;5444285;26;20046;-47
2024/04/16 04:51:50;;;;;;;1.27;0.60;;;;;;;6.82;60.59;94463.03;5432113;26;20462;-48
2024/04/16 04:54:16;;;;;;;0.50;0.50;;;;;;;6.45;62.12;94464.59;5448085;26;20031;-50
2024/04/16 04:56:41;;;;;;;1.05;0.50;;;;;;;6.56;61.41;94462.56;5440382;26;20012;-52
2024/04/16 04:59:06;;;;;;;0.70;0.50;;;;;;;6.55;61.19;94464.38;5446269;26;20010;-49
2024/04/16 05:01:32;;;;;;;0.90;0.70;;;;;;;6.51;61.32;94449.34;5445200;26;20003;-48
2024/04/16 05:03:57;;;;;;;0.45;0.40;;;;;;;6.08;61.20;94454.91;5440927;26;19999;-47
2024/04/16 05:06:22;;;;;;;0.50;0.40;;;;;;;5.82;61.94;94453.38;5445554;26;20012;-50
2024/04/16 05:08:48;;;;;;;0.68;0.50;;;;;;;5.58;62.14;94440.53;5449471;26;20104;-50
2024/04/16 05:11:13;;;;;;;0.30;0.30;;;;;;;5.70;61.89;94443.59;5419155;26;19999;-51
2024/04/16 05:13:39;;;;;;;0.98;0.40;;;;;;;5.76;61.91;94453.25;5439242;26;19999;-48
2024/04/16 05:16:04;;;;;;;0.93;0.40;;;;;;;5.85;62.32;94447.88;5451308;26;20011;-50
2024/04/16 05:18:30;;;;;;;1.95;0.47;;;;;;;5.81;61.81;94454.34;5457187;26;20002;-47
2024/04/16 05:20:58;;;;;;;0.82;0.55;;;;;;;5.60;62.77;94457.47;5448635;26;20442;-50
2024/04/16 05:23:24;;;;;;;0.38;0.38;;;;;;;5.67;62.72;94460.19;5449317;26;20504;-48
2024/04/16 05:25:53;;;;;;;0.82;0.57;;;;;;;5.84;62.56;94448.84;5449612;26;19999;-48
2024/04/16 05:28:20;;;;;;;0.40;0.40;;;;;;;5.92;62.07;94453.19;5450976;26;20003;-46
2024/04/16 05:30:46;;;;;;;0.43;0.40;;;;;;;5.89;62.26;94453.50;5450991;26;20013;-51
2024/04/16 05:33:12;;;;;;;1.63;1.10;;;;;;;6.44;61.01;94444.09;5450341;26;20006;-46
2024/04/16 05:35:37;;;;;;;0.50;0.50;;;;;;;6.24;60.73;94454.84;5446057;26;19999;-50
2024/04/16 05:38:03;;;;;;;0.50;0.50;;;;;;;6.12;62.29;94452.81;5443032;26;20084;-50
2024/04/16 05:40:28;;;;;;;0.85;0.45;;;;;;;6.30;60.73;94462.88;5429838;26;20018;-47
2024/04/16 05:42:53;;;;;;;1.83;0.60;;;;;;;6.58;60.00;94460.63;5446636;26;20328;-48
2024/04/16 05:45:19;;;;;;;1.08;0.60;;;;;;;6.62;60.66;94462.69;5445378;26;20018;-51
2024/04/16 05:47:44;;;;;;;1.13;0.50;;;;;;;6.50;61.58;94458.88;5449200;26;20003;-48
2024/04/16 05:50:09;;;;;;;0.57;0.50;;;;;;;6.19;62.19;94454.53;5451659;26;20013;-49
2024/04/16 05:52:35;;;;;;;1.00;0.60;;;;;;;6.18;62.87;94445.19;5445907;26;20013;-46
2024/04/16 05:55:00;;;;;;;1.58;0.80;;;;;;;6.36;63.00;94467.34;5418683;26;20571;-48
2024/04/16 05:57:26;;;;;;;1.17;0.60;;;;;;;6.58;62.81;94451.09;5443804;26;20025;-46
2024/04/16 05:59:52;;;;;;;0.82;0.70;;;;;;;6.85;61.49;94464.47;5447212;26;20018;-47
2024/04/16 06:02:17;;;;;;;1.27;0.70;;;;;;;7.00;60.34;94452.38;5418799;26;19999;-46
2024/04/16 06:04:43;;;;;;;0.90;0.80;;;;;;;7.07;61.26;94472.41;5416358;26;20014;-49
2024/04/16 06:07:08;;;;;;;0.70;0.70;;;;;;;7.09;62.41;94454.94;5412426;26;20016;-48
2024/04/16 06:09:33;;;;;;;0.80;0.52;;;;;;;6.99;60.74;94466.31;5448325;26;20003;-49
2024/04/16 06:11:59;;;;;;;0.93;0.52;;;;;;;7.15;60.56;94470.53;5422660;26;19999;-48
2024/04/16 06:14:24;;;;;;;0.40;0.40;;;;;;;7.29;59.71;94463.81;5448706;26;20003;-49
2024/04/16 06:16:50;;;;;;;0.50;0.50;;;;;;;7.32;58.94;94473.78;5446453;26;20003;-48
2024/04/16 06:19:15;;;;;;;0.63;0.50;;;;;;;7.53;59.48;94469.72;5449886;26;20034;-48
2024/04/16 06:21:41;;;;;;;0.40;0.40;;;;;;;7.57;59.09;94466.59;5450096;26;20007;-49
2024/04/16 06:24:06;;;;;;;0.95;0.55;;;;;;;7.73;59.91;94485.50;5448797;26;20012;-49
2024/04/16 06:26:32;;;;;;;0.95;0.50;;;;;;;7.82;59.59;94480.09;5447855;26;20035;-49
2024/04/16 06:29:00;;;;;;;2.15;0.55;;;;;;;7.99;58.88;94480.69;5438194;26;19995;-48
2024/04/16 06:31:25;;;;;;;0.50;0.50;;;;;;;8.26;56.56;94456.91;5424109;26;20004;-51
2024/04/16 06:33:51;;;;;;;1.02;0.60;;;;;;;8.44;57.29;94470.31;5428264;26;20343;-49
2024/04/16 06:36:17;;;;;;;1.67;0.50;;;;;;;8.75;56.63;94482.19;5427785;26;20081;-52
2024/04/16 06:38:43;;;;;;;0.60;0.45;;;;;;;8.86;56.82;94476.53;5435671;26;20000;-50
2024/04/16 06:41:08;;;;;;;1.30;0.63;;;;;;;8.73;57.99;94479.78;5446091;26;20147;-48
2024/04/16 06:43:33;;;;;;;0.63;0.50;;;;;;;8.92;58.07;94477.59;5437423;26;20351;-46
2024/04/16 06:45:59;;;;;;;2.00;0.70;;;;;;;8.90;58.31;94480.34;5444782;26;20013;-49
2024/04/16 06:48:24;;;;;;;0.50;0.50;;;;;;;8.79;59.29;94488.63;5438573;26;20068;-48
2024/04/16 06:50:50;;;;;;;1.17;0.47;;;;;;;9.19;58.36;94484.63;5437825;26;19998;-50
2024/04/16 06:53:16;;;;;;;1.85;0.65;;;;;;;9.02;59.24;94482.47;5433965;26;20009;-50
2024/04/16 06:55:41;;;;;;;1.55;0.60;;;;;;;9.36;57.43;94479.94;5443781;26;20010;-46
2024/04/16 06:58:07;;;;;;;1.95;0.65;;;;;;;9.46;57.41;94474.47;5446819;26;20007;-48
2024/04/16 07:00:33;;;;;;;1.75;0.60;;;;;;;9.38;57.67;94470.19;5445550;26;19999;-52
2024/04/16 07:02:59;;;;;;;1.58;0.60;;;;;;;9.56;57.10;94474.13;5475023;26;19999;-51
2024/04/16 07:05:24;;;;;;;3.30;0.60;;;;;;;9.58;55.59;94462.53;5443988;26;20046;-52
2024/04/16 07:07:49;;;;;;;1.65;0.70;;;;;;;9.39;56.17;94448.44;5428168;26;20359;-48
2024/04/16 07:10:15;;;;;;;1.90;0.70;;;;;;;9.03;58.96;94453.75;5412965;26;20072;-46
2024/04/16 07:12:40;;;;;;;1.50;0.70;;;;;;;9.22;59.67;94467.06;5446761;26;19999;-46
2024/04/16 07:15:06;;;;;;;2.08;0.85;;;;;;;9.89;57.42;94453.53;5416076;26;20040;-50
2024/04/16 07:17:31;;;;;;;1.55;0.60;;;;;;;10.42;56.03;94447.81;5446166;26;19997;-47
2024/04/16 07:19:57;;;;;;;2.05;0.50;;;;;;;11.04;56.07;94452.91;5441999;26;20018;-46
2024/04/16 07:22:23;;;;;;;0.80;0.40;;;;;;;11.79;53.40;94445.69;5444740;26;20011;-46
2024/04/16 07:24:50;;;;;;;1.05;0.60;;;;;;;11.97;51.33;94449.47;5445338;26;20006;-46
2024/04/16 07:27:16;;;;;;;0.95;0.50;;;;;;;11.94;52.51;94450.69;5445395;26;20003;-46
2024/04/16 07:29:42;;;;;;;1.42;0.80;;;;;;;11.71;53.10;94444.09;5449069;26;20313;-48
2024/04/16 07:32:07;;;;;;;1.02;0.63;;;;;;;11.76;51.73;94443.47;5446255;26;19999;-48
2024/04/16 07:34:33;;;;;;;0.90;0.90;;;;;;;11.35;54.02;94441.94;5448718;26;20161;-52
2024/04/16 07:36:58;;;;;;;1.10;0.80;;;;;;;11.65;54.56;94437.09;5443729;26;20000;-52
2024/04/16 07:39:24;;;;;;;0.90;0.50;;;;;;;12.25;51.99;94443.97;5409233;26;20011;-46
2024/04/16 07:41:49;;;;;;;0.80;0.60;;;;;;;12.48;51.75;94446.88;5409994;26;20014;-48
2024/04/16 07:44:16;;;;;;;1.08;0.50;;;;;;;12.48;51.43;94441.66;5432909;26;19999;-48
2024/04/16 07:46:41;;;;;;;1.35;0.95;;;;;;;12.50;52.47;94444.84;5433925;26;20008;-46
2024/04/16 07:49:07;;;;;;;0.77;0.47;;;;;;;12.55;53.07;94433.81;5410567;26;20015;-48
2024/04/16 07:51:32;;;;;;;1.02;0.52;;;;;;;12.97;51.11;94447.19;5410693;26;19999;-47
2024/04/16 07:53:57;;;;;;;1.65;0.60;;;;;;;13.12;50.58;94439.06;5446120;26;20010;-49
2024/04/16 07:56:23;;;;;;;0.75;0.50;;;;;;;13.81;50.99;94441.72;5446113;26;19998;-49
2024/04/16 07:58:48;;;;;;;2.38;0.60;;;;;;;14.85;47.48;94445.16;5446767;26;20459;-46
2024/04/16 08:01:15;;;;;;;2.15;0.50;;;;;;;14.91;46.62;94437.41;5446192;26;20006;-48
2024/04/16 08:03:41;;;;;;;0.85;0.47;;;;;;;14.50;45.16;94449.41;5410568;26;20009;-48
2024/04/16 08:06:07;;;;;;;0.88;0.50;;;;;;;14.48;46.34;94439.16;5436480;26;19999;-49
2024/04/16 08:08:32;;;;;;;0.90;0.50;;;;;;;14.17;47.81;94442.75;5438680;26;19999;-52
2024/04/16 08:11:10;;;;;;;1.58;0.40;;;;;;;13.74;48.85;94439.16;5446297;26;20031;-46
2024/04/16 08:13:36;;;;;;;2.15;0.60;;;;;;;13.74;47.30;94444.41;5443938;26;20011;-48
2024/04/16 08:16:01;;;;;;;2.17;0.60;;;;;;;13.29;49.33;94458.41;5413731;26;20014;-52
2024/04/16 08:18:27;;;;;;;0.75;0.60;;;;;;;13.31;48.30;94450.41;5444755;26;20007;-52
2024/04/16 08:20:52;;;;;;;2.80;0.60;;;;;;;13.04;47.83;94460.19;5442990;26;20007;-47
2024/04/16 08:23:19;;;;;;;1.50;0.55;;;;;;;12.67;50.02;94465.25;5410665;26;20432;-49
2024/04/16 08:25:44;;;;;;;1.80;0.50;;;;;;;12.36;50.47;94456.38;5441304;26;20008;-50
2024/04/16 08:28:09;;;;;;;1.25;0.73;;;;;;;12.74;51.69;94459.97;5429900;26;20098;-51
2024/04/16 08:30:35;;;;;;;1.90;0.60;;;;;;;13.00;49.20;94464.25;5443091;26;20037;-51
2024/04/16 08:33:00;;;;;;;2.08;0.73;;;;;;;13.25;51.49;94478.16;5412698;26;20069;-46
2024/04/16 08:35:27;;;;;;;1.15;0.57;;;;;;;13.45;50.69;94475.41;5444072;26;19991;-46
2024/04/16 08:37:53;;;;;;;1.52;0.80;;;;;;;14.01;47.21;94471.09;5444784;26;20075;-52
2024/04/16 08:40:18;;;;;;;3.50;0.75;;;;;;;13.81;47.50;94473.09;5442364;26;20444;-49
2024/04/16 08:42:45;;;;;;;1.33;0.70;;;;;;;13.56;47.95;94473.13;5444600;26;19995;-48
2024/04/16 08:45:11;;;;;;;2.05;0.80;;;;;;;13.73;46.78;94466.31;5451654;26;20006;-46
2024/04/16 08:47:37;;;;;;;3.65;0.68;;;;;;;13.73;44.55;94471.56;5446350;26;20072;-49
2024/04/16 08:50:07;;;;;;;2.00;0.60;;;;;;;13.78;48.83;94474.31;5443410;26;19996;-48
2024/04/16 08:52:33;;;;;;;2.03;0.80;;;;;;;14.15;48.31;94468.34;5421980;26;20465;-50
2024/04/16 08:54:59;;;;;;;1.50;0.60;;;;;;;14.51;44.68;94471.94;5418124;26;20081;-50
2024/04/16 08:57:27;;;;;;;1.65;0.60;;;;;;;14.01;44.34;94468.47;5432001;26;20013;-49
2024/04/16 08:59:52;;;;;;;1.02;0.60;;;;;;;14.11;45.47;94475.81;5439757;26;20004;-48
2024/04/16 09:02:19;;;;;;;2.17;0.70;;;;;;;13.63;46.83;94485.13;5441927;26;20000;-47
2024/04/16 09:04:47;;;;;;;1.88;0.70;;;;;;;13.55;46.32;94476.72;5450584;26;20103;-47
2024/04/16 09:07:13;;;;;;;1.88;0.70;;;;;;;13.36;45.18;94481.09;5437015;26;20003;-51
2024/04/16 09:09:38;;;;;;;1.30;0.65;;;;;;;13.42;44.66;94478.44;5406702;26;20002;-48
2024/04/16 09:12:04;;;;;;;2.72;0.70;;;;;;;13.21;46.85;94469.13;5438299;26;20044;-46
2024/04/16 09:14:30;;;;;;;3.85;0.60;;;;;;;13.22;46.60;94469.94;5442239;26;20015;-51
2024/04/16 09:16:56;;;;;;;3.42;0.90;;;;;;;13.63;46.13;94458.16;5443640;26;20087;-50
2024/04/16 09:19:26;;;;;;;3.42;0.80;;;;;;;13.99;42.50;94464.47;5452649;26;20011;-49
2024/04/16 09:21:52;;;;;;;;;;;;;;;14.08;45.18;94461.34;5433112;26;20011;-50
2024/04/16 09:24:20;;;;;;;2.80;0.80;;;;;;;14.08;43.84;94450.09;5445581;26;19997;-49
2024/04/16 09:26:46;;;;;;;5.00;1.00;;;;;;;14.18;45.51;94447.75;5456417;26;20355;-48
2024/04/16 09:29:11;;;;;;;1.92;0.88;;;;;;;14.73;45.10;94457.38;5449408;26;20017;-48
2024/04/16 09:31:36;;;;;;;2.30;0.80;;;;;;;15.13;43.49;94448.97;5447871;26;19999;-51
2024/04/16 09:34:09;;;;;;;2.42;0.70;;;;;;;15.23;45.77;94443.16;5448727;26;20003;-52
2024/04/16 09:36:34;;;;;;;2.78;0.70;;;;;;;15.45;43.27;94443.44;5449472;26;20007;-48
2024/04/16 09:39:00;;;;;;;3.92;0.98;;;;;;;15.41;40.45;94437.06;5447060;26;20067;-51
2024/04/16 09:41:28;;;;;;;1.60;0.73;;;;;;;15.68;40.63;94442.66;5449154;26;19999;-46
2024/04/16 09:43:54;;;;;;;4.15;0.90;;;;;;;15.69;41.56;94443.44;5440249;26;19996;-49
2024/04/16 09:46:20;;;;;;;2.80;0.70;;;;;;;15.61;42.46;94432.28;5442202;26;20030;-47
2024/04/16 09:48:47;;;;;;;2.47;0.77;;;;;;;15.93;43.14;94439.81;5441956;26;19999;-50
2024/04/16 09:51:14;;;;;;;2.13;0.75;;;;;;;16.39;38.06;94422.41;5446946;26;20067;-49
2024/04/16 09:53:43;;;;;;;3.35;0.90;;;;;;;16.55;38.02;94420.06;5443847;26;20023;-49
2024/04/16 09:56:09;;;;;;;3.42;0.90;;;;;;;15.92;37.39;94432.19;5450316;26;19999;-52
2024/04/16 09:58:36;;;;;;;3.78;1.10;;;;;;;15.66;37.70;94438.69;5450602;26;20010;-46
2024/04/16 10:01:03;;;;;;;2.85;1.08;;;;;;;14.94;39.40;94442.19;5444219;26;20071;-50
2024/04/16 10:03:29;;;;;;;2.90;0.90;;;;;;;14.42;40.87;94440.03;5429673;26;19995;-46
2024/04/16 10:05:55;;;;;;;3.38;1.20;;;;;;;14.30;40.20;94449.63;5418588;26;19999;-49
2024/04/16 10:08:21;;;;;;;3.10;0.77;;;;;;;13.94;39.72;94436.38;5444202;26;20003;-49
2024/04/16 10:10:49;;;;;;;4.35;0.85;;;;;;;13.94;41.34;94446.81;5446874;26;20069;-47
2024/04/16 10:13:15;;;;;;;3.38;1.02;;;;;;;13.48;41.48;94455.91;5448500;26;19998;-48
2024/04/16 10:15:44;;;;;;;3.65;0.80;;;;;;;13.07;43.18;94455.34;5437831;26;20009;-46
2024/04/16 10:18:10;;;;;;;3.03;0.80;;;;;;;13.18;46.60;94451.28;5445797;26;20003;-47
2024/04/16 10:20:36;;;;;;;3.38;0.93;;;;;;;13.53;46.19;94447.41;5445789;26;19999;-50
2024/04/16 10:23:02;;;;;;;2.72;0.73;;;;;;;13.85;46.60;94442.88;5442458;26;20672;-48
2024/04/16 10:25:29;;;;;;;1.83;0.65;;;;;;;14.27;41.54;94428.13;5448949;26;20003;-49
2024/04/16 10:27:57;;;;;;;1.73;0.60;;;;;;;14.17;42.99;94422.63;5434086;26;19995;-46
2024/04/16 10:30:27;;;;;;;2.05;0.60;;;;;;;14.64;43.55;94422.06;5436688;26;20015;-50
2024/04/16 10:32:56;;;;;;;3.92;0.90;;;;;;;14.81;40.72;94412.59;5431670;26;19998;-49
2024/04/16 10:35:21;;;;;;;3.83;1.05;;;;;;;15.16;38.93;94427.56;5442069;26;20007;-46
2024/04/16 10:37:50;;;;;;;2.58;0.73;;;;;;;14.83;37.46;94414.97;5450311;26;20764;-48
2024/04/16 10:40:23;;;;;;;2.72;0.88;;;;;;;14.71;36.94;94419.38;5421110;26;20003;-46
2024/04/16 10:42:49;;;;;;;1.13;0.40;;;;;;;14.71;35.42;94414.94;5446639;26;20358;-45
2024/04/16 10:45:14;;;;;;;1.63;0.60;;;;;;;14.43;37.44;94415.47;5416681;26;20013;-46
2024/04/16 10:47:40;;;;;;;1.75;0.85;;;;;;;14.72;35.42;94426.22;5444732;26;20100;-47
2024/04/16 10:50:06;;;;;;;2.67;0.60;;;;;;;14.53;35.74;94428.03;5444172;26;20048;-47
2024/04/16 10:52:32;;;;;;;1.70;0.70;;;;;;;14.42;37.36;94422.53;5448811;26;20003;-47
2024/04/16 10:54:57;;;;;;;1.25;0.77;;;;;;;14.32;38.58;94422.25;5404936;26;20474;-46
2024/04/16 10:57:23;;;;;;;1.40;0.68;;;;;;;14.64;38.51;94422.88;5440149;26;20013;-46
2024/04/16 10:59:48;;;;;;;2.50;0.80;;;;;;;15.14;37.61;94415.72;5445168;26;20386;-46
2024/04/16 11:02:14;;;;;;;1.48;0.70;;;;;;;15.20;38.29;94397.28;5445121;26;20072;-46
2024/04/16 11:04:39;;;;;;;2.03;0.80;;;;;;;15.55;38.43;94403.56;5446809;26;20010;-46
2024/04/16 11:07:05;;;;;;;3.28;0.73;;;;;;;15.83;35.32;94397.66;5448923;26;20038;-49
2024/04/16 11:09:31;;;;;;;2.08;0.52;;;;;;;15.71;39.06;94386.38;5446326;26;20013;-48
2024/04/16 11:11:57;;;;;;;2.92;0.70;;;;;;;16.21;35.55;94391.88;5443621;26;19998;-51
2024/04/16 11:14:24;;;;;;;2.97;0.60;;;;;;;15.95;34.46;94379.28;5403111;26;20004;-47
2024/04/16 11:16:49;;;;;;;2.40;0.70;;;;;;;16.03;35.49;94379.72;5411466;26;20011;-47
2024/04/16 11:19:16;;;;;;;2.35;0.80;;;;;;;15.91;35.46;94380.75;5435470;26;20034;-46
2024/04/16 11:21:41;;;;;;;1.80;0.70;;;;;;;15.81;35.88;94378.72;5448339;26;20019;-47
2024/04/16 11:24:07;;;;;;;3.90;0.73;;;;;;;15.90;35.69;94377.34;5440960;26;20011;-47
2024/04/16 11:26:33;;;;;;;1.48;0.68;;;;;;;15.98;33.46;94371.75;5444906;26;19998;-48
2024/04/16 11:28:58;;;;;;;1.10;0.70;;;;;;;15.48;34.74;94359.13;5415573;26;20021;-46
2024/04/16 11:31:24;;;;;;;2.78;0.98;;;;;;;15.06;34.98;94359.25;5448266;26;20420;-47
2024/04/16 11:33:50;;;;;;;1.75;0.70;;;;;;;15.24;34.73;94353.88;5447608;26;20010;-50